Time;durP1;ratioP1;P1;durP2;ratioP2;P2;SDS_P1;SDS_P2;PMS_P1;PMS_P2;Temp;Humidity;BMP_temperature;BMP_pressure;BME280_temperature;BME280_humidity;BME280_pressure;Samples;Min_cycle;Max_cycle;Signal;HPM_P1;HPM_P2
2022/10/26 00:02:25;;;;;;;2.30;1.77;;;;;;;;;;4979473;28;20647;-62
2022/10/26 00:04:52;;;;;;;2.07;1.67;;;;;;;;;;4982377;28;20257;-62
2022/10/26 00:07:19;;;;;;;3.63;1.90;;;;;;;;;;4978532;28;20356;-63
2022/10/26 00:09:47;;;;;;;3.33;1.60;;;;;;;;;;4981893;28;20314;-62
2022/10/26 00:12:15;;;;;;;4.50;1.70;;;;;;;;;;4979951;28;20309;-61
2022/10/26 00:14:42;;;;;;;2.97;1.70;;;;;;;;;;4983086;28;20403;-62
2022/10/26 00:17:10;;;;;;;4.03;1.60;;;;;;;;;;4978194;28;20291;-62
2022/10/26 00:19:38;;;;;;;4.10;1.60;;;;;;;;;;4982502;28;20301;-62
2022/10/26 00:22:05;;;;;;;1.83;1.63;;;;;;;;;;4995866;28;20294;-63
2022/10/26 00:24:32;;;;;;;2.33;1.80;;;;;;;;;;4993966;28;20294;-63
2022/10/26 00:26:59;;;;;;;2.80;2.07;;;;;;;;;;4976539;28;20211;-63
2022/10/26 00:29:27;;;;;;;2.37;1.50;;;;;;;;;;4968617;28;20807;-62
2022/10/26 00:31:55;;;;;;;2.83;1.63;;;;;;;;;;4981564;28;20294;-62
2022/10/26 00:34:22;;;;;;;2.50;1.83;;;;;;;;;;4982558;28;20203;-62
2022/10/26 00:36:50;;;;;;;2.90;1.80;;;;;;;;;;4985135;28;20295;-62
2022/10/26 00:39:17;;;;;;;2.07;1.80;;;;;;;;;;4979253;28;20228;-62
2022/10/26 00:41:44;;;;;;;2.37;1.90;;;;;;;;;;4984247;28;20302;-63
2022/10/26 00:44:30;;;;;;;6.10;2.10;;;;;;;;;;4988642;28;20320;-62
2022/10/26 00:47:04;;;;;;;2.57;1.50;;;;;;;;;;4988799;28;21038;-62
2022/10/26 00:49:31;;;;;;;2.73;1.50;;;;;;;;;;4982215;28;20247;-62
2022/10/26 00:51:59;;;;;;;2.70;1.90;;;;;;;;;;4984015;28;20212;-62
2022/10/26 00:54:26;;;;;;;2.27;1.70;;;;;;;;;;4986014;28;20204;-62
2022/10/26 00:56:54;;;;;;;4.27;1.80;;;;;;;;;;4983632;28;20206;-63
2022/10/26 00:59:22;;;;;;;3.47;2.40;;;;;;;;;;4977051;28;20327;-62
2022/10/26 01:01:50;;;;;;;3.00;1.90;;;;;;;;;;4974910;28;20298;-63
2022/10/26 01:04:18;;;;;;;1.60;1.40;;;;;;;;;;4983366;28;20252;-61
2022/10/26 01:06:46;;;;;;;4.83;1.70;;;;;;;;;;4981879;28;20295;-63
2022/10/26 01:09:14;;;;;;;3.33;1.70;;;;;;;;;;4974854;28;20279;-63
2022/10/26 01:11:41;;;;;;;4.00;1.97;;;;;;;;;;4968546;28;20201;-62
2022/10/26 01:14:09;;;;;;;3.23;1.90;;;;;;;;;;4969006;28;20354;-63
2022/10/26 01:17:01;;;;;;;7.63;2.20;;;;;;;;;;4986557;28;20220;-63
2022/10/26 01:19:46;;;;;;;3.03;1.70;;;;;;;;;;4966058;28;20254;-62
2022/10/26 01:22:13;;;;;;;3.93;1.80;;;;;;;;;;4969624;28;20207;-63
2022/10/26 01:24:46;;;;;;;4.77;1.90;;;;;;;;;;4988661;28;20239;-62
2022/10/26 01:27:17;;;;;;;3.87;1.90;;;;;;;;;;4985255;28;20310;-63
2022/10/26 01:29:59;;;;;;;4.57;1.77;;;;;;;;;;4981221;28;20314;-61
2022/10/26 01:32:34;;;;;;;1.80;1.70;;;;;;;;;;4968566;28;20688;-63
2022/10/26 01:35:05;;;;;;;2.40;1.67;;;;;;;;;;4990840;28;20207;-61
2022/10/26 01:37:35;;;;;;;2.20;1.53;;;;;;;;;;4973448;28;20610;-62
2022/10/26 01:40:07;;;;;;;5.20;1.70;;;;;;;;;;4977058;28;20980;-63
2022/10/26 01:42:36;;;;;;;2.43;1.70;;;;;;;;;;4976877;28;20196;-62
2022/10/26 01:45:07;;;;;;;9.47;2.10;;;;;;;;;;4971423;28;20211;-63
2022/10/26 01:47:36;;;;;;;3.17;1.97;;;;;;;;;;4971040;28;20203;-62
2022/10/26 01:50:05;;;;;;;1.93;1.70;;;;;;;;;;4969731;28;20281;-63
2022/10/26 01:52:33;;;;;;;4.03;1.93;;;;;;;;;;4975350;28;20298;-62
2022/10/26 01:55:23;;;;;;;3.73;1.90;;;;;;;;;;4969673;28;20321;-62
2022/10/26 01:57:51;;;;;;;4.07;1.63;;;;;;;;;;4970126;28;20230;-62
2022/10/26 02:00:19;;;;;;;5.53;1.80;;;;;;;;;;4979156;28;20231;-63
2022/10/26 02:03:06;;;;;;;3.23;1.90;;;;;;;;;;4984839;28;20314;-62
2022/10/26 02:05:39;;;;;;;4.00;1.60;;;;;;;;;;4988373;28;20314;-62
2022/10/26 02:08:10;;;;;;;2.10;1.70;;;;;;;;;;4981656;28;20751;-62
2022/10/26 02:10:40;;;;;;;3.90;1.73;;;;;;;;;;4975292;28;20674;-63
2022/10/26 02:13:23;;;;;;;3.70;1.80;;;;;;;;;;4973677;28;20264;-63
2022/10/26 02:15:59;;;;;;;3.27;1.80;;;;;;;;;;4971376;28;20207;-62
2022/10/26 02:18:57;;;;;;;2.57;1.50;;;;;;;;;;4969203;28;20467;-62
2022/10/26 02:21:27;;;;;;;4.60;1.70;;;;;;;;;;4981397;28;20270;-63
2022/10/26 02:23:56;;;;;;;3.83;1.83;;;;;;;;;;4993016;28;20313;-63
2022/10/26 02:26:27;;;;;;;3.20;1.73;;;;;;;;;;4973094;28;20662;-63
2022/10/26 02:28:57;;;;;;;2.13;1.60;;;;;;;;;;4970057;28;20215;-63
2022/10/26 02:31:25;;;;;;;4.77;2.17;;;;;;;;;;4968343;28;20215;-62
2022/10/26 02:33:54;;;;;;;6.50;2.90;;;;;;;;;;4995497;28;20212;-63
2022/10/26 02:36:25;;;;;;;3.17;2.20;;;;;;;;;;5007964;28;20212;-62
2022/10/26 02:38:53;;;;;;;2.20;1.83;;;;;;;;;;4996978;28;20236;-63
2022/10/26 02:41:22;;;;;;;2.43;2.10;;;;;;;;;;4977536;28;20209;-62
2022/10/26 02:43:56;;;;;;;3.40;1.90;;;;;;;;;;4972219;28;20231;-62
2022/10/26 02:46:25;;;;;;;3.07;1.90;;;;;;;;;;4978225;28;20210;-63
2022/10/26 02:48:53;;;;;;;2.23;1.70;;;;;;;;;;4988669;28;20323;-62
2022/10/26 02:51:34;;;;;;;4.53;1.83;;;;;;;;;;4963058;28;20212;-60
2022/10/26 02:54:10;;;;;;;4.70;2.10;;;;;;;;;;4969306;28;23142;-62
2022/10/26 02:56:46;;;;;;;3.93;1.90;;;;;;;;;;4974484;28;20329;-64
2022/10/26 02:59:15;;;;;;;4.23;2.00;;;;;;;;;;4962740;28;20239;-61
2022/10/26 03:01:43;;;;;;;5.07;1.80;;;;;;;;;;4975749;28;20452;-63
2022/10/26 03:04:11;;;;;;;6.70;1.97;;;;;;;;;;4970068;28;20235;-63
2022/10/26 03:06:38;;;;;;;2.83;1.77;;;;;;;;;;4972295;28;20677;-63
2022/10/26 03:09:06;;;;;;;2.87;1.60;;;;;;;;;;4973110;28;20350;-64
2022/10/26 03:11:33;;;;;;;4.43;1.87;;;;;;;;;;4979441;28;20342;-64
2022/10/26 03:14:02;;;;;;;4.23;2.10;;;;;;;;;;4964401;28;20203;-62
2022/10/26 03:16:29;;;;;;;6.00;1.90;;;;;;;;;;4980207;28;20218;-61
2022/10/26 03:18:58;;;;;;;5.73;2.03;;;;;;;;;;4968980;28;20265;-62
2022/10/26 03:21:25;;;;;;;6.87;2.10;;;;;;;;;;4952090;28;20218;-64
2022/10/26 03:23:54;;;;;;;4.20;1.90;;;;;;;;;;4961591;28;20314;-62
2022/10/26 03:26:22;;;;;;;9.33;4.50;;;;;;;;;;4966701;28;20243;-61
2022/10/26 03:28:50;;;;;;;3.83;1.83;;;;;;;;;;4967539;28;20362;-63
2022/10/26 03:31:18;;;;;;;4.73;1.90;;;;;;;;;;4986590;28;20217;-62
2022/10/26 03:33:46;;;;;;;3.87;1.80;;;;;;;;;;4963088;28;20227;-61
2022/10/26 03:36:13;;;;;;;3.47;2.00;;;;;;;;;;4986300;28;20205;-61
2022/10/26 03:38:40;;;;;;;4.93;2.17;;;;;;;;;;4973714;28;20346;-63
2022/10/26 03:41:08;;;;;;;3.40;2.00;;;;;;;;;;4963703;28;20211;-62
2022/10/26 03:43:35;;;;;;;2.70;1.80;;;;;;;;;;4959431;28;20354;-63
2022/10/26 03:46:02;;;;;;;6.13;1.97;;;;;;;;;;4962978;28;20303;-62
2022/10/26 03:48:29;;;;;;;2.43;2.17;;;;;;;;;;4955958;28;20990;-62
2022/10/26 03:50:58;;;;;;;2.00;1.80;;;;;;;;;;4958148;28;20797;-63
2022/10/26 03:53:26;;;;;;;3.73;1.90;;;;;;;;;;4956722;28;20234;-62
2022/10/26 03:55:53;;;;;;;3.50;2.03;;;;;;;;;;4962502;28;20214;-63
2022/10/26 03:58:20;;;;;;;2.33;2.10;;;;;;;;;;4968707;28;20231;-63
2022/10/26 04:00:48;;;;;;;2.40;1.80;;;;;;;;;;4988777;28;20769;-63
2022/10/26 04:03:15;;;;;;;2.35;2.10;;;;;;;;;;4987671;28;20222;-62
2022/10/26 04:05:43;;;;;;;2.73;1.80;;;;;;;;;;4973522;28;20302;-63
2022/10/26 04:08:10;;;;;;;4.87;2.30;;;;;;;;;;4969935;28;20310;-63
2022/10/26 04:10:38;;;;;;;3.97;2.08;;;;;;;;;;4968400;28;20235;-63
2022/10/26 04:13:05;;;;;;;3.63;2.13;;;;;;;;;;4973568;28;20262;-63
2022/10/26 04:15:32;;;;;;;4.80;2.30;;;;;;;;;;4969287;28;20285;-63
2022/10/26 04:18:02;;;;;;;4.78;2.22;;;;;;;;;;4988879;28;20720;-62
2022/10/26 04:20:30;;;;;;;5.43;2.60;;;;;;;;;;4971245;28;20427;-63
2022/10/26 04:23:02;;;;;;;3.93;2.10;;;;;;;;;;4968078;28;20696;-62
2022/10/26 04:25:30;;;;;;;4.53;2.20;;;;;;;;;;4971730;28;20612;-63
2022/10/26 04:28:00;;;;;;;5.17;2.30;;;;;;;;;;4967363;28;20218;-63
2022/10/26 04:30:30;;;;;;;3.20;2.30;;;;;;;;;;4975856;28;20239;-63
2022/10/26 04:32:58;;;;;;;4.30;2.30;;;;;;;;;;4977531;28;20215;-63
2022/10/26 04:35:26;;;;;;;5.27;2.30;;;;;;;;;;4985003;28;20207;-62
2022/10/26 04:38:11;;;;;;;4.00;2.10;;;;;;;;;;4983545;28;20696;-63
2022/10/26 04:40:39;;;;;;;4.27;2.20;;;;;;;;;;4983091;28;20216;-62
2022/10/26 04:43:10;;;;;;;2.75;2.47;;;;;;;;;;4989163;28;20297;-63
2022/10/26 04:45:38;;;;;;;3.80;2.20;;;;;;;;;;4988909;28;20211;-62
2022/10/26 04:48:07;;;;;;;6.27;2.20;;;;;;;;;;4990620;28;20666;-62
2022/10/26 04:50:34;;;;;;;4.05;2.65;;;;;;;;;;5003521;28;20862;-63
2022/10/26 04:53:02;;;;;;;5.07;2.33;;;;;;;;;;4975806;28;20363;-62
2022/10/26 04:55:29;;;;;;;6.33;2.10;;;;;;;;;;4988876;28;20201;-63
2022/10/26 04:57:57;;;;;;;8.83;2.50;;;;;;;;;;4975867;28;20215;-63
2022/10/26 05:00:29;;;;;;;6.50;2.33;;;;;;;;;;4979545;28;20223;-62
2022/10/26 05:03:00;;;;;;;5.43;2.30;;;;;;;;;;4970893;28;20219;-63
2022/10/26 05:05:30;;;;;;;4.50;2.50;;;;;;;;;;4988953;28;20240;-63
2022/10/26 05:07:57;;;;;;;3.37;2.00;;;;;;;;;;4992649;28;20220;-63
2022/10/26 05:10:26;;;;;;;3.50;2.00;;;;;;;;;;4978606;28;20291;-63
2022/10/26 05:12:54;;;;;;;3.57;2.20;;;;;;;;;;4973023;28;20285;-63
2022/10/26 05:15:22;;;;;;;2.50;1.90;;;;;;;;;;4971148;28;20208;-63
2022/10/26 05:18:01;;;;;;;3.23;2.20;;;;;;;;;;4974532;28;20214;-63
2022/10/26 05:20:30;;;;;;;4.63;2.33;;;;;;;;;;4972368;28;21083;-62
2022/10/26 05:23:00;;;;;;;4.33;2.13;;;;;;;;;;4990620;28;20215;-62
2022/10/26 05:25:28;;;;;;;3.57;2.20;;;;;;;;;;4985340;28;21009;-62
2022/10/26 05:27:57;;;;;;;2.23;2.03;;;;;;;;;;4974710;28;20271;-62
2022/10/26 05:30:26;;;;;;;3.50;2.00;;;;;;;;;;4993492;28;20212;-63
2022/10/26 05:32:54;;;;;;;5.13;2.30;;;;;;;;;;4972328;28;20230;-62
2022/10/26 05:35:22;;;;;;;3.47;2.40;;;;;;;;;;4970146;28;20215;-62
2022/10/26 05:37:50;;;;;;;2.57;1.90;;;;;;;;;;4974779;28;20223;-62
2022/10/26 05:40:18;;;;;;;3.03;2.43;;;;;;;;;;4980094;28;20275;-62
2022/10/26 05:42:46;;;;;;;2.53;2.33;;;;;;;;;;4971789;28;20669;-63
2022/10/26 05:45:14;;;;;;;3.63;2.13;;;;;;;;;;4994756;28;20227;-62
2022/10/26 05:47:43;;;;;;;2.90;2.20;;;;;;;;;;4976448;28;20203;-62
2022/10/26 05:50:12;;;;;;;5.93;2.50;;;;;;;;;;4989987;28;20709;-62
2022/10/26 05:52:43;;;;;;;4.47;2.57;;;;;;;;;;4976282;28;20225;-62
2022/10/26 05:55:12;;;;;;;3.53;2.30;;;;;;;;;;4993030;28;20262;-63
2022/10/26 05:57:40;;;;;;;2.97;2.20;;;;;;;;;;4991549;28;20685;-62
2022/10/26 06:00:10;;;;;;;5.30;2.47;;;;;;;;;;4979430;28;20242;-63
2022/10/26 06:03:01;;;;;;;3.83;2.70;;;;;;;;;;4986314;28;20294;-62
2022/10/26 06:05:32;;;;;;;3.07;2.60;;;;;;;;;;4981710;28;20246;-62
2022/10/26 06:08:00;;;;;;;6.20;2.87;;;;;;;;;;4988292;28;20200;-62
2022/10/26 06:10:28;;;;;;;4.40;3.10;;;;;;;;;;5003502;28;20212;-62
2022/10/26 06:12:56;;;;;;;6.20;3.03;;;;;;;;;;4991374;28;20286;-63
2022/10/26 06:15:24;;;;;;;4.90;2.97;;;;;;;;;;4974276;28;21381;-62
2022/10/26 06:17:59;;;;;;;5.27;3.50;;;;;;;;;;4964516;28;21480;-63
2022/10/26 06:20:31;;;;;;;8.77;3.30;;;;;;;;;;4972100;28;20217;-63
2022/10/26 06:23:14;;;;;;;6.20;3.13;;;;;;;;;;4973476;28;20212;-62
2022/10/26 06:26:00;;;;;;;7.03;3.70;;;;;;;;;;4972939;28;20333;-62
2022/10/26 06:28:37;;;;;;;6.77;3.40;;;;;;;;;;4971734;28;20231;-63
2022/10/26 06:31:05;;;;;;;5.40;3.30;;;;;;;;;;4995059;28;20234;-63
2022/10/26 06:33:32;;;;;;;6.93;3.87;;;;;;;;;;4975495;28;20253;-63
2022/10/26 06:36:09;;;;;;;3.70;3.40;;;;;;;;;;4979871;28;20212;-62
2022/10/26 06:38:37;;;;;;;7.37;3.87;;;;;;;;;;4984757;28;20598;-62
2022/10/26 06:41:05;;;;;;;5.80;3.33;;;;;;;;;;4986774;28;20216;-62
2022/10/26 06:43:34;;;;;;;5.13;3.53;;;;;;;;;;4983108;28;20208;-63
2022/10/26 06:46:08;;;;;;;5.07;3.93;;;;;;;;;;4985780;28;20682;-63
2022/10/26 06:48:45;;;;;;;6.67;3.63;;;;;;;;;;5005927;28;20327;-63
2022/10/26 06:51:14;;;;;;;6.03;4.10;;;;;;;;;;4978345;28;20210;-63
2022/10/26 06:53:46;;;;;;;4.40;3.77;;;;;;;;;;4984093;28;20744;-62
2022/10/26 06:56:13;;;;;;;6.13;3.90;;;;;;;;;;4983428;28;20352;-62
2022/10/26 06:58:41;;;;;;;5.50;3.60;;;;;;;;;;4999748;28;20314;-63
2022/10/26 07:01:11;;;;;;;5.50;4.07;;;;;;;;;;4988917;28;20266;-62
2022/10/26 07:03:38;;;;;;;5.87;3.40;;;;;;;;;;4986519;28;20203;-63
2022/10/26 07:06:06;;;;;;;6.10;3.90;;;;;;;;;;4985374;28;20294;-62
2022/10/26 07:08:34;;;;;;;5.63;3.70;;;;;;;;;;4978800;28;20294;-63
2022/10/26 07:11:01;;;;;;;5.27;4.03;;;;;;;;;;4985773;28;20207;-62
2022/10/26 07:13:29;;;;;;;5.80;4.47;;;;;;;;;;4983198;28;20196;-63
2022/10/26 07:15:56;;;;;;;6.27;4.20;;;;;;;;;;4990618;28;20207;-62
2022/10/26 07:18:23;;;;;;;4.90;4.20;;;;;;;;;;5005562;28;20232;-62
2022/10/26 07:20:51;;;;;;;6.72;4.40;;;;;;;;;;4983690;28;20298;-63
2022/10/26 07:23:21;;;;;;;5.47;4.07;;;;;;;;;;4977562;28;20307;-62
2022/10/26 07:25:49;;;;;;;8.80;4.38;;;;;;;;;;4987170;28;20232;-62
2022/10/26 07:28:18;;;;;;;6.38;3.90;;;;;;;;;;4990986;28;20696;-62
2022/10/26 07:30:46;;;;;;;6.25;4.03;;;;;;;;;;4988540;28;20199;-62
2022/10/26 07:33:14;;;;;;;6.87;4.50;;;;;;;;;;4984969;28;20228;-62
2022/10/26 07:35:42;;;;;;;5.80;3.73;;;;;;;;;;4996926;28;20219;-62
2022/10/26 07:38:11;;;;;;;5.55;3.30;;;;;;;;;;5000401;28;20269;-62
2022/10/26 07:40:38;;;;;;;7.10;3.63;;;;;;;;;;4974159;28;20212;-63
2022/10/26 07:43:06;;;;;;;6.45;3.58;;;;;;;;;;4964280;28;20374;-62
2022/10/26 07:45:35;;;;;;;7.78;3.33;;;;;;;;;;4964791;28;20231;-62
2022/10/26 07:48:03;;;;;;;7.18;3.25;;;;;;;;;;4973529;28;20595;-63
2022/10/26 07:50:30;;;;;;;5.40;2.97;;;;;;;;;;4964111;28;20218;-63
2022/10/26 07:52:58;;;;;;;6.72;3.50;;;;;;;;;;4968866;28;20283;-62
2022/10/26 07:55:27;;;;;;;4.90;3.28;;;;;;;;;;4973379;28;20235;-63
2022/10/26 07:57:54;;;;;;;5.78;3.35;;;;;;;;;;4985226;28;20716;-62
2022/10/26 08:00:22;;;;;;;5.05;2.78;;;;;;;;;;4994789;28;20599;-63
2022/10/26 08:02:50;;;;;;;5.82;3.20;;;;;;;;;;4984294;28;20219;-63
2022/10/26 08:05:17;;;;;;;6.80;3.08;;;;;;;;;;4983913;28;20322;-62
2022/10/26 08:07:45;;;;;;;4.88;3.15;;;;;;;;;;4976433;28;20203;-61
2022/10/26 08:10:13;;;;;;;5.22;2.97;;;;;;;;;;4971529;28;20234;-63
2022/10/26 08:12:41;;;;;;;5.75;3.10;;;;;;;;;;4978329;28;20575;-62
2022/10/26 08:15:09;;;;;;;4.63;2.83;;;;;;;;;;4987297;28;20299;-62
2022/10/26 08:17:36;;;;;;;6.60;2.72;;;;;;;;;;4982826;28;20622;-62
2022/10/26 08:20:04;;;;;;;5.03;3.08;;;;;;;;;;4973852;28;20329;-63
2022/10/26 08:22:31;;;;;;;5.10;2.85;;;;;;;;;;4979926;28;20602;-63
2022/10/26 08:24:59;;;;;;;9.82;2.90;;;;;;;;;;4973537;28;20722;-63
2022/10/26 08:27:26;;;;;;;4.18;2.78;;;;;;;;;;4971892;28;20216;-64
2022/10/26 08:29:53;;;;;;;5.85;3.00;;;;;;;;;;4996231;28;20301;-61
2022/10/26 08:32:21;;;;;;;5.07;2.92;;;;;;;;;;4988815;28;20723;-63
2022/10/26 08:34:48;;;;;;;8.60;3.05;;;;;;;;;;4977510;28;20721;-61
2022/10/26 08:37:15;;;;;;;4.32;3.42;;;;;;;;;;4979299;28;20221;-63
2022/10/26 08:39:43;;;;;;;6.25;2.83;;;;;;;;;;4977693;28;20232;-61
2022/10/26 08:42:13;;;;;;;3.35;2.75;;;;;;;;;;4971497;28;20298;-62
2022/10/26 08:44:41;;;;;;;5.50;2.35;;;;;;;;;;4989622;28;20231;-62
2022/10/26 08:47:17;;;;;;;5.75;2.33;;;;;;;;;;4979474;28;20298;-62
2022/10/26 08:49:50;;;;;;;5.18;2.45;;;;;;;;;;4975057;28;20521;-63
2022/10/26 08:52:22;;;;;;;2.83;2.20;;;;;;;;;;4975755;28;20207;-62
2022/10/26 08:54:55;;;;;;;3.17;2.13;;;;;;;;;;4974524;28;20203;-62
2022/10/26 08:57:27;;;;;;;3.38;2.47;;;;;;;;;;4975885;28;20219;-62
2022/10/26 08:59:59;;;;;;;5.32;2.28;;;;;;;;;;4992435;28;20660;-62
2022/10/26 09:02:27;;;;;;;3.58;2.20;;;;;;;;;;4987965;28;20315;-63
2022/10/26 09:04:58;;;;;;;6.90;2.38;;;;;;;;;;4990806;28;20227;-62
2022/10/26 09:07:32;;;;;;;4.20;2.20;;;;;;;;;;5006065;28;20207;-62
2022/10/26 09:10:07;;;;;;;6.85;2.47;;;;;;;;;;4981491;28;20500;-62
2022/10/26 09:12:50;;;;;;;6.50;2.40;;;;;;;;;;4985628;28;20231;-62
2022/10/26 09:15:30;;;;;;;6.22;1.80;;;;;;;;;;4988032;28;20208;-63
2022/10/26 09:18:16;;;;;;;3.78;2.10;;;;;;;;;;4979829;28;20305;-62
2022/10/26 09:21:02;;;;;;;6.63;2.40;;;;;;;;;;4967243;28;20204;-62
2022/10/26 09:23:39;;;;;;;6.10;1.85;;;;;;;;;;4974377;28;20652;-62
2022/10/26 09:26:12;;;;;;;5.78;2.17;;;;;;;;;;4977222;28;20227;-62
2022/10/26 09:28:40;;;;;;;5.57;2.33;;;;;;;;;;4976090;28;20221;-62
2022/10/26 09:31:13;;;;;;;5.28;2.28;;;;;;;;;;4980731;28;20294;-64
2022/10/26 09:33:40;;;;;;;5.53;1.90;;;;;;;;;;4972430;28;20203;-63
2022/10/26 09:36:18;;;;;;;5.35;2.17;;;;;;;;;;4973865;28;20307;-63
2022/10/26 09:38:53;;;;;;;5.15;1.80;;;;;;;;;;4987351;28;20227;-63
2022/10/26 09:41:25;;;;;;;3.70;2.08;;;;;;;;;;4964665;28;20199;-61
2022/10/26 09:44:02;;;;;;;7.05;2.60;;;;;;;;;;4976949;28;20215;-62
2022/10/26 09:46:49;;;;;;;2.80;1.80;;;;;;;;;;4967741;28;20239;-64
2022/10/26 09:49:17;;;;;;;3.67;1.70;;;;;;;;;;4977240;28;20274;-62
2022/10/26 09:51:45;;;;;;;5.78;2.00;;;;;;;;;;4970749;28;20199;-62
2022/10/26 09:54:16;;;;;;;7.13;2.20;;;;;;;;;;4973979;28;20551;-63
2022/10/26 09:56:46;;;;;;;3.72;1.50;;;;;;;;;;4965461;28;20222;-61
2022/10/26 09:59:14;;;;;;;5.97;1.80;;;;;;;;;;4975866;28;20234;-62
2022/10/26 10:01:42;;;;;;;3.22;1.85;;;;;;;;;;4994482;28;20258;-60
2022/10/26 10:04:13;;;;;;;4.28;1.73;;;;;;;;;;4989953;28;20219;-63
2022/10/26 10:06:40;;;;;;;7.53;2.10;;;;;;;;;;4989372;28;20710;-64
2022/10/26 10:09:11;;;;;;;8.77;1.70;;;;;;;;;;4981610;28;20282;-63
2022/10/26 10:11:53;;;;;;;3.25;1.75;;;;;;;;;;4973293;28;20294;-64
2022/10/26 10:14:42;;;;;;;6.18;2.20;;;;;;;;;;4972667;28;20310;-62
2022/10/26 10:17:19;;;;;;;4.82;1.65;;;;;;;;;;4962749;28;20273;-62
2022/10/26 10:19:46;;;;;;;4.72;1.90;;;;;;;;;;4981706;28;20616;-63
2022/10/26 10:22:14;;;;;;;4.45;2.08;;;;;;;;;;4983265;28;20243;-62
2022/10/26 10:24:42;;;;;;;4.35;1.60;;;;;;;;;;4978262;28;20299;-63
2022/10/26 10:27:14;;;;;;;2.88;1.35;;;;;;;;;;4990641;28;20725;-62
2022/10/26 10:29:46;;;;;;;5.15;1.77;;;;;;;;;;4992798;28;20401;-62
2022/10/26 10:32:15;;;;;;;5.30;1.73;;;;;;;;;;4970748;28;20576;-63
2022/10/26 10:34:42;;;;;;;6.05;1.70;;;;;;;;;;5001600;28;20332;-63
2022/10/26 10:37:25;;;;;;;6.78;2.25;;;;;;;;;;4979943;28;20230;-62
2022/10/26 10:39:57;;;;;;;7.35;1.95;;;;;;;;;;4982594;28;20742;-62
2022/10/26 10:42:46;;;;;;;4.45;1.55;;;;;;;;;;4975783;28;20938;-62
2022/10/26 10:45:21;;;;;;;4.85;1.60;;;;;;;;;;4968759;28;22234;-62
2022/10/26 10:48:02;;;;;;;2.22;1.42;;;;;;;;;;4973217;28;20231;-63
2022/10/26 10:50:29;;;;;;;5.05;1.80;;;;;;;;;;4972089;28;20206;-62
2022/10/26 10:53:13;;;;;;;3.88;1.73;;;;;;;;;;4969230;28;20575;-60
2022/10/26 10:55:44;;;;;;;3.95;1.40;;;;;;;;;;4963675;28;20271;-62
2022/10/26 10:58:40;;;;;;;5.03;1.55;;;;;;;;;;4960972;28;20247;-62
2022/10/26 11:01:22;;;;;;;2.65;1.45;;;;;;;;;;4968651;28;20207;-63
2022/10/26 11:04:11;;;;;;;4.38;1.42;;;;;;;;;;4983899;28;20979;-63
2022/10/26 11:06:40;;;;;;;7.07;2.10;;;;;;;;;;4970228;28;20227;-62
2022/10/26 11:09:11;;;;;;;4.93;1.92;;;;;;;;;;4987084;28;21300;-61
2022/10/26 11:11:44;;;;;;;4.35;1.70;;;;;;;;;;4976595;28;20297;-60
2022/10/26 11:14:12;;;;;;;3.80;1.70;;;;;;;;;;4964939;28;20860;-61
2022/10/26 11:16:51;;;;;;;3.85;1.38;;;;;;;;;;4963593;28;20216;-64
2022/10/26 11:19:25;;;;;;;4.75;1.95;;;;;;;;;;4968983;28;20285;-64
2022/10/26 11:21:53;;;;;;;4.05;1.30;;;;;;;;;;4964984;28;20203;-64
2022/10/26 11:24:30;;;;;;;6.68;2.13;;;;;;;;;;4959880;28;20207;-64
2022/10/26 11:27:10;;;;;;;7.95;1.58;;;;;;;;;;4986624;28;20233;-62
2022/10/26 11:29:38;;;;;;;3.20;1.40;;;;;;;;;;4975595;28;20333;-64
2022/10/26 11:32:18;;;;;;;3.55;1.83;;;;;;;;;;4962980;28;20357;-61
2022/10/26 11:34:52;;;;;;;3.85;1.60;;;;;;;;;;4967410;28;20249;-63
2022/10/26 11:37:36;;;;;;;2.85;1.30;;;;;;;;;;4972605;28;20641;-62
2022/10/26 11:40:22;;;;;;;4.55;1.60;;;;;;;;;;4977034;28;20234;-62
2022/10/26 11:42:52;;;;;;;3.97;2.05;;;;;;;;;;4977563;28;21749;-64
2022/10/26 11:45:24;;;;;;;4.88;1.98;;;;;;;;;;4979679;28;20314;-62
2022/10/26 11:47:55;;;;;;;2.80;1.40;;;;;;;;;;4974860;28;21276;-62
2022/10/26 11:50:25;;;;;;;5.43;1.90;;;;;;;;;;4973839;28;20283;-64
2022/10/26 11:52:57;;;;;;;3.38;1.63;;;;;;;;;;4971010;28;20199;-63
2022/10/26 11:55:25;;;;;;;4.13;1.88;;;;;;;;;;4969719;28;20219;-62
2022/10/26 11:57:53;;;;;;;5.25;1.85;;;;;;;;;;4972442;28;20282;-62
2022/10/26 12:00:22;;;;;;;3.55;1.60;;;;;;;;;;4982438;28;20239;-61
2022/10/26 12:02:56;;;;;;;4.47;2.30;;;;;;;;;;4985202;28;20235;-63
2022/10/26 12:05:26;;;;;;;5.72;1.63;;;;;;;;;;4991462;28;20546;-63
2022/10/26 12:07:56;;;;;;;6.88;1.95;;;;;;;;;;4969163;28;20239;-62
2022/10/26 12:10:26;;;;;;;5.03;1.92;;;;;;;;;;4983811;28;20238;-62
2022/10/26 12:13:00;;;;;;;5.45;1.98;;;;;;;;;;4968208;28;20217;-62
2022/10/26 12:15:41;;;;;;;8.00;2.20;;;;;;;;;;4967166;28;20250;-62
2022/10/26 12:18:34;;;;;;;4.65;2.20;;;;;;;;;;4970797;28;20227;-63
2022/10/26 12:21:23;;;;;;;6.32;1.88;;;;;;;;;;4993534;28;20238;-63
2022/10/26 12:23:56;;;;;;;8.13;2.20;;;;;;;;;;4987169;28;20555;-63
2022/10/26 12:26:24;;;;;;;6.50;1.80;;;;;;;;;;4968821;28;20278;-63
2022/10/26 12:29:03;;;;;;;8.40;1.88;;;;;;;;;;4960897;28;20247;-63
2022/10/26 12:31:37;;;;;;;4.70;1.70;;;;;;;;;;4975659;28;20293;-62
2022/10/26 12:34:25;;;;;;;2.13;1.48;;;;;;;;;;4969790;28;21928;-61
2022/10/26 12:36:55;;;;;;;4.93;2.05;;;;;;;;;;4962100;28;20326;-61
2022/10/26 12:39:39;;;;;;;7.55;2.05;;;;;;;;;;4973397;28;20246;-63
2022/10/26 12:42:10;;;;;;;5.43;2.00;;;;;;;;;;4985225;28;20654;-62
2022/10/26 12:44:47;;;;;;;4.00;2.10;;;;;;;;;;4969162;28;20350;-63
2022/10/26 12:47:29;;;;;;;5.60;1.80;;;;;;;;;;4978875;28;20230;-62
2022/10/26 12:50:00;;;;;;;5.03;2.20;;;;;;;;;;4969480;28;20374;-61
2022/10/26 12:52:33;;;;;;;5.03;1.85;;;;;;;;;;4973057;28;20319;-62
2022/10/26 12:55:24;;;;;;;5.53;1.80;;;;;;;;;;4972107;28;20615;-62
2022/10/26 12:58:00;;;;;;;6.40;2.30;;;;;;;;;;4978539;28;20749;-61
2022/10/26 13:00:28;;;;;;;4.60;1.98;;;;;;;;;;4962702;28;20543;-63
2022/10/26 13:03:16;;;;;;;2.67;1.50;;;;;;;;;;4972657;28;20207;-63
2022/10/26 13:05:43;;;;;;;6.53;2.08;;;;;;;;;;4971559;28;20239;-62
2022/10/26 13:08:11;;;;;;;3.20;1.55;;;;;;;;;;4971473;28;20282;-64
2022/10/26 13:10:42;;;;;;;4.22;1.90;;;;;;;;;;4972867;28;20294;-62
2022/10/26 13:13:20;;;;;;;6.32;2.20;;;;;;;;;;4974401;28;20679;-63
2022/10/26 13:15:55;;;;;;;5.13;2.00;;;;;;;;;;4974152;28;20219;-61
2022/10/26 13:18:23;;;;;;;5.28;2.10;;;;;;;;;;4970746;28;20322;-62
2022/10/26 13:20:53;;;;;;;2.50;1.60;;;;;;;;;;4977833;28;20214;-61
2022/10/26 13:23:28;;;;;;;5.25;2.28;;;;;;;;;;4973392;28;20204;-62
2022/10/26 13:26:13;;;;;;;4.97;1.98;;;;;;;;;;4971974;28;20257;-62
2022/10/26 13:28:41;;;;;;;3.38;1.55;;;;;;;;;;4965573;28;20370;-63
2022/10/26 13:31:17;;;;;;;4.38;1.80;;;;;;;;;;4966214;28;20587;-64
2022/10/26 13:33:46;;;;;;;6.03;1.80;;;;;;;;;;4972760;28;20287;-64
2022/10/26 13:36:33;;;;;;;3.83;1.80;;;;;;;;;;4978120;28;20204;-64
2022/10/26 13:39:02;;;;;;;5.10;1.98;;;;;;;;;;4974435;28;20314;-63
2022/10/26 13:41:34;;;;;;;4.85;1.85;;;;;;;;;;4972883;28;20612;-63
2022/10/26 13:44:12;;;;;;;3.25;1.90;;;;;;;;;;4972347;28;20243;-62
2022/10/26 13:46:45;;;;;;;5.72;1.90;;;;;;;;;;4975814;28;20701;-62
2022/10/26 13:49:21;;;;;;;4.45;1.67;;;;;;;;;;4974211;28;20506;-63
2022/10/26 13:51:50;;;;;;;3.63;1.80;;;;;;;;;;4971650;28;20578;-63
2022/10/26 13:54:26;;;;;;;5.10;1.77;;;;;;;;;;4975070;28;20287;-64
2022/10/26 13:57:01;;;;;;;4.55;2.03;;;;;;;;;;4966199;28;20289;-63
2022/10/26 13:59:30;;;;;;;2.05;1.63;;;;;;;;;;4978348;28;20230;-61
2022/10/26 14:02:07;;;;;;;4.80;1.85;;;;;;;;;;4999908;28;20219;-64
2022/10/26 14:04:35;;;;;;;4.90;1.63;;;;;;;;;;4983728;28;20290;-63
2022/10/26 14:07:02;;;;;;;5.25;1.58;;;;;;;;;;4988857;28;20318;-60
2022/10/26 14:09:30;;;;;;;5.32;1.92;;;;;;;;;;5008101;28;20301;-63
2022/10/26 14:11:58;;;;;;;16.63;9.63;;;;;;;;;;4989793;28;20200;-63
2022/10/26 14:14:27;;;;;;;16.30;6.97;;;;;;;;;;4973481;28;20208;-62
2022/10/26 14:16:55;;;;;;;7.63;2.78;;;;;;;;;;4971128;28;20294;-63
2022/10/26 14:19:27;;;;;;;3.58;1.92;;;;;;;;;;4985856;28;20390;-64
2022/10/26 14:21:55;;;;;;;5.07;2.13;;;;;;;;;;4973840;28;21112;-63
2022/10/26 14:24:39;;;;;;;3.63;2.20;;;;;;;;;;4971265;28;20208;-63
2022/10/26 14:27:17;;;;;;;4.13;2.40;;;;;;;;;;4971770;28;20238;-63
2022/10/26 14:29:44;;;;;;;4.82;2.20;;;;;;;;;;4971614;28;20523;-62
2022/10/26 14:32:32;;;;;;;33.17;9.65;;;;;;;;;;4993890;28;20208;-62
2022/10/26 14:35:00;;;;;;;8.10;3.05;;;;;;;;;;4980495;28;20230;-62
2022/10/26 14:37:27;;;;;;;7.53;2.60;;;;;;;;;;4984992;28;20916;-62
2022/10/26 14:39:54;;;;;;;4.50;2.20;;;;;;;;;;4984596;28;20318;-62
2022/10/26 14:42:28;;;;;;;3.88;1.80;;;;;;;;;;4989849;28;20199;-62
2022/10/26 14:44:56;;;;;;;5.13;2.08;;;;;;;;;;4989827;28;20208;-62
2022/10/26 14:47:24;;;;;;;8.38;2.22;;;;;;;;;;4991409;28;20669;-61
2022/10/26 14:49:52;;;;;;;7.88;2.42;;;;;;;;;;4972938;28;20446;-63
2022/10/26 14:52:22;;;;;;;4.10;1.80;;;;;;;;;;4997543;28;20212;-63
2022/10/26 14:54:58;;;;;;;3.60;1.80;;;;;;;;;;4977284;28;20218;-63
2022/10/26 14:57:30;;;;;;;6.55;1.92;;;;;;;;;;5002351;28;20299;-63
2022/10/26 15:00:01;;;;;;;7.22;2.35;;;;;;;;;;4976999;28;20318;-63
2022/10/26 15:02:32;;;;;;;5.75;2.10;;;;;;;;;;4986468;28;20306;-63
2022/10/26 15:05:01;;;;;;;4.78;1.65;;;;;;;;;;4991474;28;20265;-63
2022/10/26 15:07:39;;;;;;;5.75;2.17;;;;;;;;;;4985102;28;20227;-63
2022/10/26 15:10:27;;;;;;;4.53;2.17;;;;;;;;;;4989902;28;20342;-63